Time;durP1;ratioP1;P1;durP2;ratioP2;P2;SDS_P1;SDS_P2;PMS_P1;PMS_P2;Temp;Humidity;BMP_temperature;BMP_pressure;BME280_temperature;BME280_humidity;BME280_pressure;Samples;Min_cycle;Max_cycle;Signal;HPM_P1;HPM_P2
2021/07/04 00:01:21;;;;;;;11.20;8.73;;;;;;;;;;5055666;28;20460;-76
2021/07/04 00:03:47;;;;;;;8.97;8.17;;;;;;;;;;5055756;28;20921;-78
2021/07/04 00:06:14;;;;;;;10.20;7.93;;;;;;;;;;5055648;28;20437;-76
2021/07/04 00:08:40;;;;;;;10.10;9.10;;;;;;;;;;5054919;28;20426;-76
2021/07/04 00:11:08;;;;;;;8.73;7.90;;;;;;;;;;5055428;28;20408;-76
2021/07/04 00:13:35;;;;;;;10.37;9.20;;;;;;;;;;5055411;28;20426;-77
2021/07/04 00:16:01;;;;;;;9.40;8.50;;;;;;;;;;5055521;28;20441;-75
2021/07/04 00:18:28;;;;;;;9.53;8.60;;;;;;;;;;5054879;28;20988;-73
2021/07/04 00:20:55;;;;;;;8.53;7.80;;;;;;;;;;5055618;28;20839;-75
2021/07/04 00:23:22;;;;;;;9.60;8.60;;;;;;;;;;5054976;28;20425;-78
2021/07/04 00:25:49;;;;;;;9.40;8.50;;;;;;;;;;5055328;28;20416;-75
2021/07/04 00:28:15;;;;;;;9.03;8.13;;;;;;;;;;5054915;28;20441;-72
2021/07/04 00:30:41;;;;;;;10.33;9.43;;;;;;;;;;5055306;28;20430;-81
2021/07/04 00:33:07;;;;;;;11.03;9.10;;;;;;;;;;5055294;28;20421;-74
2021/07/04 00:35:33;;;;;;;13.17;10.00;;;;;;;;;;5054936;28;20431;-76
2021/07/04 00:38:00;;;;;;;10.20;9.20;;;;;;;;;;5054689;28;20475;-76
2021/07/04 00:40:26;;;;;;;10.67;9.67;;;;;;;;;;5054909;28;20422;-78
2021/07/04 00:42:53;;;;;;;11.50;10.40;;;;;;;;;;5055277;28;20465;-73
2021/07/04 00:45:20;;;;;;;12.17;10.93;;;;;;;;;;5054943;28;20409;-73
2021/07/04 00:47:47;;;;;;;12.40;11.10;;;;;;;;;;5054497;28;20412;-73
2021/07/04 00:50:13;;;;;;;12.00;10.80;;;;;;;;;;5055250;28;20525;-73
2021/07/04 00:52:41;;;;;;;12.43;11.20;;;;;;;;;;5054897;28;20411;-75
2021/07/04 00:55:08;;;;;;;13.07;11.77;;;;;;;;;;5054844;28;20521;-75
2021/07/04 00:57:34;;;;;;;11.77;10.67;;;;;;;;;;5052500;28;20454;-75
2021/07/04 01:00:00;;;;;;;15.27;11.20;;;;;;;;;;5054371;28;20528;-76
2021/07/04 01:02:27;;;;;;;12.07;11.00;;;;;;;;;;5054570;28;20407;-75
2021/07/04 01:04:54;;;;;;;12.00;10.70;;;;;;;;;;5054574;28;20830;-75
2021/07/04 01:07:20;;;;;;;14.80;11.50;;;;;;;;;;5054157;28;20963;-76
2021/07/04 01:09:46;;;;;;;12.90;11.63;;;;;;;;;;5053749;28;20434;-77
2021/07/04 01:12:12;;;;;;;13.27;11.13;;;;;;;;;;5054443;28;20421;-76
2021/07/04 01:14:39;;;;;;;12.47;11.30;;;;;;;;;;5054445;28;20410;-77
2021/07/04 01:17:05;;;;;;;12.20;10.90;;;;;;;;;;5053916;28;20456;-74
2021/07/04 01:19:31;;;;;;;12.83;11.37;;;;;;;;;;5054432;28;20429;-76
2021/07/04 01:21:58;;;;;;;12.00;10.73;;;;;;;;;;5054106;28;20408;-77
2021/07/04 01:24:25;;;;;;;11.73;10.60;;;;;;;;;;5054010;28;20405;-76
2021/07/04 01:26:51;;;;;;;12.90;10.93;;;;;;;;;;5053525;28;20885;-76
2021/07/04 01:29:18;;;;;;;11.70;10.57;;;;;;;;;;5053791;28;20770;-78
2021/07/04 01:31:44;;;;;;;12.23;11.13;;;;;;;;;;5053941;28;20417;-76
2021/07/04 01:34:10;;;;;;;12.17;10.90;;;;;;;;;;5053818;28;20413;-76
2021/07/04 01:36:38;;;;;;;11.47;10.47;;;;;;;;;;5053416;28;20879;-75
2021/07/04 01:39:05;;;;;;;12.27;11.03;;;;;;;;;;5053750;28;20532;-78
2021/07/04 01:41:30;;;;;;;12.10;10.93;;;;;;;;;;5052703;28;20411;-76
2021/07/04 01:43:56;;;;;;;13.37;12.07;;;;;;;;;;5053939;28;20471;-77
2021/07/04 01:46:23;;;;;;;12.27;11.17;;;;;;;;;;5054247;28;20807;-76
2021/07/04 01:48:49;;;;;;;11.83;10.83;;;;;;;;;;5054289;28;20402;-75
2021/07/04 01:51:15;;;;;;;11.97;10.87;;;;;;;;;;5053540;28;20436;-77
2021/07/04 01:53:41;;;;;;;13.40;12.20;;;;;;;;;;5053652;28;20421;-76
2021/07/04 01:56:08;;;;;;;11.27;10.27;;;;;;;;;;5053528;28;20501;-76
2021/07/04 01:58:37;;;;;;;11.57;10.57;;;;;;;;;;5053164;28;20517;-79
2021/07/04 02:01:05;;;;;;;12.13;11.03;;;;;;;;;;5053523;28;20902;-75
2021/07/04 02:03:31;;;;;;;11.00;9.80;;;;;;;;;;5053662;28;20422;-76
2021/07/04 02:05:57;;;;;;;13.30;12.13;;;;;;;;;;5053306;28;20471;-79
2021/07/04 02:08:23;;;;;;;12.90;11.70;;;;;;;;;;5052820;28;20416;-74
2021/07/04 02:10:49;;;;;;;11.73;10.73;;;;;;;;;;5053209;28;21004;-77
2021/07/04 02:13:15;;;;;;;12.43;11.33;;;;;;;;;;5053368;28;20548;-77
2021/07/04 02:15:41;;;;;;;11.50;10.40;;;;;;;;;;5053484;28;20442;-75
2021/07/04 02:18:10;;;;;;;10.13;9.23;;;;;;;;;;5052666;28;20457;-79
2021/07/04 02:20:39;;;;;;;11.37;10.37;;;;;;;;;;5052195;28;20441;-74
2021/07/04 02:23:06;;;;;;;12.00;10.40;;;;;;;;;;5052985;28;20423;-75
2021/07/04 02:25:33;;;;;;;11.43;10.43;;;;;;;;;;5053033;28;20407;-76
2021/07/04 02:27:59;;;;;;;11.03;10.03;;;;;;;;;;5053052;28;20427;-75
2021/07/04 02:30:25;;;;;;;10.30;9.40;;;;;;;;;;5053036;28;20772;-75
2021/07/04 02:32:51;;;;;;;11.67;10.57;;;;;;;;;;5052925;28;20425;-78
2021/07/04 02:35:18;;;;;;;9.90;9.00;;;;;;;;;;5053100;28;20405;-74
2021/07/04 02:37:44;;;;;;;12.07;10.17;;;;;;;;;;5052589;28;20512;-76
2021/07/04 02:40:10;;;;;;;10.50;9.50;;;;;;;;;;5052966;28;20427;-75
2021/07/04 02:42:36;;;;;;;11.10;10.10;;;;;;;;;;5052866;28;20449;-78
2021/07/04 02:45:03;;;;;;;10.93;9.90;;;;;;;;;;5052859;28;20501;-77
2021/07/04 02:47:30;;;;;;;10.97;9.83;;;;;;;;;;5052580;28;20831;-74
2021/07/04 02:49:56;;;;;;;10.10;9.20;;;;;;;;;;5052804;28;20492;-75
2021/07/04 02:52:22;;;;;;;10.80;9.80;;;;;;;;;;5053101;28;20446;-76
2021/07/04 02:54:48;;;;;;;10.93;9.93;;;;;;;;;;5052723;28;20426;-76
2021/07/04 02:57:14;;;;;;;10.37;9.50;;;;;;;;;;5052299;28;20981;-74
2021/07/04 02:59:40;;;;;;;12.03;9.43;;;;;;;;;;5052845;28;20455;-74
2021/07/04 03:02:06;;;;;;;9.53;8.73;;;;;;;;;;5052548;28;20771;-79
2021/07/04 03:04:32;;;;;;;9.67;8.83;;;;;;;;;;5051452;28;20458;-77
2021/07/04 03:07:00;;;;;;;10.67;9.67;;;;;;;;;;5052155;28;20417;-78
2021/07/04 03:09:26;;;;;;;11.10;10.00;;;;;;;;;;5052884;28;20441;-76
2021/07/04 03:11:55;;;;;;;10.50;9.50;;;;;;;;;;5052753;28;20415;-77
2021/07/04 03:14:21;;;;;;;9.40;8.60;;;;;;;;;;5052761;28;20419;-75
2021/07/04 03:16:47;;;;;;;8.93;8.13;;;;;;;;;;5051841;28;20466;-76
2021/07/04 03:19:14;;;;;;;9.40;8.53;;;;;;;;;;5052250;28;20887;-76
2021/07/04 03:21:40;;;;;;;9.10;7.90;;;;;;;;;;5052714;28;20438;-77
2021/07/04 03:24:06;;;;;;;9.20;8.30;;;;;;;;;;5052635;28;20414;-75
2021/07/04 03:26:32;;;;;;;9.23;8.43;;;;;;;;;;5052162;28;20413;-77
2021/07/04 03:28:58;;;;;;;9.33;8.43;;;;;;;;;;5042158;28;20435;-74
2021/07/04 03:31:25;;;;;;;9.57;8.47;;;;;;;;;;5051951;28;20464;-75
2021/07/04 03:33:51;;;;;;;11.17;10.07;;;;;;;;;;5056531;28;20405;-74
2021/07/04 03:36:17;;;;;;;9.70;8.80;;;;;;;;;;5056139;28;20814;-77
2021/07/04 03:38:43;;;;;;;10.80;9.80;;;;;;;;;;5055880;28;20409;-75
2021/07/04 03:41:09;;;;;;;9.97;9.07;;;;;;;;;;5056382;28;20416;-77
2021/07/04 03:43:35;;;;;;;10.70;9.60;;;;;;;;;;5056539;28;20807;-75
2021/07/04 03:46:01;;;;;;;11.10;10.00;;;;;;;;;;5056056;28;20406;-77
2021/07/04 03:48:27;;;;;;;10.40;9.50;;;;;;;;;;5055921;28;20953;-79
2021/07/04 03:50:53;;;;;;;11.10;9.90;;;;;;;;;;5055762;28;20473;-77
2021/07/04 03:53:19;;;;;;;10.93;10.03;;;;;;;;;;5056099;28;20486;-75
2021/07/04 03:55:45;;;;;;;11.90;10.80;;;;;;;;;;5055881;28;20414;-74
2021/07/04 03:58:11;;;;;;;12.10;10.90;;;;;;;;;;5055025;28;20470;-76
2021/07/04 04:00:37;;;;;;;11.33;10.23;;;;;;;;;;5055736;28;20442;-75
2021/07/04 04:03:03;;;;;;;12.40;11.20;;;;;;;;;;5055656;28;20406;-75
2021/07/04 04:05:29;;;;;;;11.70;10.60;;;;;;;;;;5055716;28;20468;-75
2021/07/04 04:07:55;;;;;;;11.93;10.83;;;;;;;;;;5055239;28;20419;-75
2021/07/04 04:10:21;;;;;;;11.73;10.50;;;;;;;;;;5055712;28;20439;-78
2021/07/04 04:12:47;;;;;;;10.90;9.90;;;;;;;;;;5055377;28;20414;-76
2021/07/04 04:15:14;;;;;;;10.40;9.50;;;;;;;;;;5055341;28;20425;-75
2021/07/04 04:17:40;;;;;;;12.33;11.13;;;;;;;;;;5055060;28;20563;-80
2021/07/04 04:20:06;;;;;;;11.17;10.13;;;;;;;;;;5055343;28;20431;-75
2021/07/04 04:22:32;;;;;;;12.40;11.20;;;;;;;;;;5055206;28;20419;-77
2021/07/04 04:24:58;;;;;;;10.67;9.60;;;;;;;;;;5055116;28;20795;-74
2021/07/04 04:27:24;;;;;;;11.17;10.17;;;;;;;;;;5054422;28;20412;-77
2021/07/04 04:29:51;;;;;;;11.50;10.40;;;;;;;;;;5055091;28;20931;-75
2021/07/04 04:32:17;;;;;;;12.27;10.97;;;;;;;;;;5055478;28;20416;-75
2021/07/04 04:34:43;;;;;;;11.43;10.43;;;;;;;;;;5055189;28;20408;-74
2021/07/04 04:37:09;;;;;;;11.83;10.80;;;;;;;;;;5054479;28;20864;-74
2021/07/04 04:39:35;;;;;;;12.73;11.50;;;;;;;;;;5054805;28;20561;-76
2021/07/04 04:42:01;;;;;;;12.30;11.10;;;;;;;;;;5055051;28;20421;-74
2021/07/04 04:44:27;;;;;;;12.23;11.13;;;;;;;;;;5052882;28;21017;-73
2021/07/04 04:46:53;;;;;;;13.53;12.17;;;;;;;;;;5054690;28;20427;-76
2021/07/04 04:49:19;;;;;;;12.37;11.03;;;;;;;;;;5054718;28;20454;-74
2021/07/04 04:51:45;;;;;;;12.27;11.17;;;;;;;;;;5055030;28;20423;-76
2021/07/04 04:54:11;;;;;;;12.50;11.37;;;;;;;;;;5054866;28;20415;-73
2021/07/04 04:56:37;;;;;;;13.40;10.70;;;;;;;;;;5054200;28;20489;-76
2021/07/04 04:59:04;;;;;;;10.83;9.93;;;;;;;;;;5054595;28;20769;-74
2021/07/04 05:01:30;;;;;;;11.17;10.27;;;;;;;;;;5054699;28;20419;-77
2021/07/04 05:03:56;;;;;;;12.20;11.20;;;;;;;;;;5054920;28;20418;-74
2021/07/04 05:06:22;;;;;;;10.60;9.70;;;;;;;;;;5054695;28;20876;-77
2021/07/04 05:08:48;;;;;;;11.80;10.80;;;;;;;;;;5054020;28;20447;-74
2021/07/04 05:11:15;;;;;;;11.87;10.87;;;;;;;;;;5054389;28;20419;-75
2021/07/04 05:13:41;;;;;;;12.10;11.10;;;;;;;;;;5054091;28;20419;-73
2021/07/04 05:16:07;;;;;;;11.17;10.10;;;;;;;;;;5054219;28;20414;-77
2021/07/04 05:18:34;;;;;;;11.60;10.60;;;;;;;;;;5053883;28;20470;-75
2021/07/04 05:21:00;;;;;;;11.37;10.40;;;;;;;;;;5054453;28;20416;-76
2021/07/04 05:23:26;;;;;;;11.77;10.70;;;;;;;;;;5054139;28;20490;-78
2021/07/04 05:25:55;;;;;;;11.60;10.63;;;;;;;;;;5053857;28;20404;-77
2021/07/04 05:28:21;;;;;;;11.20;10.00;;;;;;;;;;5053707;28;20400;-75
2021/07/04 05:30:47;;;;;;;12.23;11.20;;;;;;;;;;5053928;28;20442;-77
2021/07/04 05:33:13;;;;;;;11.33;10.33;;;;;;;;;;5054048;28;20420;-75
2021/07/04 05:35:40;;;;;;;11.20;10.20;;;;;;;;;;5054048;28;20411;-76
2021/07/04 05:38:10;;;;;;;11.43;10.47;;;;;;;;;;5053439;28;20451;-75
2021/07/04 05:40:36;;;;;;;11.27;10.43;;;;;;;;;;5053777;28;20446;-75
2021/07/04 05:43:02;;;;;;;11.83;10.83;;;;;;;;;;5054002;28;20761;-75
2021/07/04 05:45:28;;;;;;;10.57;9.67;;;;;;;;;;5053875;28;20411;-75
2021/07/04 05:47:55;;;;;;;12.27;11.07;;;;;;;;;;5053278;28;20420;-72
2021/07/04 05:50:21;;;;;;;12.17;10.97;;;;;;;;;;5053596;28;20431;-74
2021/07/04 05:52:48;;;;;;;11.03;10.13;;;;;;;;;;5053599;28;20533;-73
2021/07/04 05:55:15;;;;;;;11.60;10.60;;;;;;;;;;5053923;28;20416;-75
2021/07/04 05:57:41;;;;;;;10.87;9.87;;;;;;;;;;5052664;28;20463;-75
2021/07/04 06:00:07;;;;;;;10.43;9.53;;;;;;;;;;5053519;28;20838;-76
2021/07/04 06:02:33;;;;;;;9.60;8.60;;;;;;;;;;5053405;28;20904;-74
2021/07/04 06:04:59;;;;;;;10.30;9.40;;;;;;;;;;5053529;28;20815;-74
2021/07/04 06:07:25;;;;;;;10.27;9.37;;;;;;;;;;5052766;28;20419;-76
2021/07/04 06:09:51;;;;;;;9.67;8.87;;;;;;;;;;5053260;28;20438;-76
2021/07/04 06:12:17;;;;;;;10.60;9.70;;;;;;;;;;5053338;28;20424;-74
2021/07/04 06:14:43;;;;;;;8.90;8.00;;;;;;;;;;5053360;28;20456;-75
2021/07/04 06:17:10;;;;;;;9.23;8.40;;;;;;;;;;5053048;28;20447;-73
2021/07/04 06:19:36;;;;;;;9.30;8.60;;;;;;;;;;5053032;28;20443;-73
2021/07/04 06:22:03;;;;;;;9.70;8.70;;;;;;;;;;5052964;28;20760;-76
2021/07/04 06:24:29;;;;;;;9.20;8.40;;;;;;;;;;5051919;28;20432;-76
2021/07/04 06:26:55;;;;;;;9.90;9.00;;;;;;;;;;5052772;28;20427;-72
2021/07/04 06:29:21;;;;;;;10.23;9.37;;;;;;;;;;5052983;28;20443;-75
2021/07/04 06:31:47;;;;;;;9.63;8.93;;;;;;;;;;5053182;28;20725;-76
2021/07/04 06:34:13;;;;;;;9.83;8.80;;;;;;;;;;5052957;28;20421;-76
2021/07/04 06:36:39;;;;;;;8.90;8.20;;;;;;;;;;5052384;28;20424;-74
2021/07/04 06:39:05;;;;;;;8.70;8.00;;;;;;;;;;5052894;28;20492;-74
2021/07/04 06:41:31;;;;;;;8.00;7.30;;;;;;;;;;5052973;28;20419;-76
2021/07/04 06:44:00;;;;;;;7.50;6.90;;;;;;;;;;5053111;28;20418;-75
2021/07/04 06:46:26;;;;;;;8.03;7.33;;;;;;;;;;5052673;28;20423;-77
2021/07/04 06:48:52;;;;;;;7.40;6.80;;;;;;;;;;5052298;28;20884;-75
2021/07/04 06:51:18;;;;;;;8.10;7.40;;;;;;;;;;5052664;28;20408;-74
2021/07/04 06:53:44;;;;;;;8.43;7.63;;;;;;;;;;5052817;28;20415;-77
2021/07/04 06:56:10;;;;;;;7.27;6.60;;;;;;;;;;5052570;28;20411;-74
2021/07/04 06:58:36;;;;;;;7.83;7.03;;;;;;;;;;5051538;28;20471;-74
2021/07/04 07:01:03;;;;;;;6.77;6.27;;;;;;;;;;5051559;28;20851;-78
2021/07/04 07:03:29;;;;;;;7.20;6.60;;;;;;;;;;5052676;28;20439;-73
2021/07/04 07:05:55;;;;;;;6.03;5.53;;;;;;;;;;5052605;28;20496;-73
2021/07/04 07:08:21;;;;;;;5.53;5.13;;;;;;;;;;5055545;28;20416;-77
2021/07/04 07:10:47;;;;;;;6.60;6.00;;;;;;;;;;5056746;28;20637;-78
2021/07/04 07:13:13;;;;;;;5.83;5.40;;;;;;;;;;5056632;28;20423;-74
2021/07/04 07:15:39;;;;;;;5.97;5.47;;;;;;;;;;5056759;28;20816;-75
2021/07/04 07:18:05;;;;;;;6.03;5.53;;;;;;;;;;5055944;28;20458;-76
2021/07/04 07:20:31;;;;;;;6.13;5.67;;;;;;;;;;5056494;28;20500;-73
2021/07/04 07:22:57;;;;;;;5.63;5.23;;;;;;;;;;5056703;28;20407;-76
2021/07/04 07:25:23;;;;;;;5.73;5.23;;;;;;;;;;5056433;28;20406;-77
2021/07/04 07:27:49;;;;;;;5.37;4.90;;;;;;;;;;5055746;28;20438;-73
2021/07/04 07:30:16;;;;;;;5.63;5.13;;;;;;;;;;5056311;28;20427;-76
2021/07/04 07:32:42;;;;;;;5.60;5.10;;;;;;;;;;5054818;28;20819;-76
2021/07/04 07:35:08;;;;;;;5.57;5.17;;;;;;;;;;5056164;28;20423;-77
2021/07/04 07:37:35;;;;;;;5.00;4.60;;;;;;;;;;5055793;28;21095;-75
2021/07/04 07:40:01;;;;;;;5.67;5.27;;;;;;;;;;5056105;28;20800;-77
2021/07/04 07:42:27;;;;;;;5.20;4.80;;;;;;;;;;5055962;28;20408;-77
2021/07/04 07:44:53;;;;;;;6.37;5.77;;;;;;;;;;5055974;28;20485;-74
2021/07/04 07:47:19;;;;;;;5.30;4.90;;;;;;;;;;5055639;28;20857;-77
2021/07/04 07:49:45;;;;;;;5.50;5.00;;;;;;;;;;5056133;28;20525;-72
2021/07/04 07:52:11;;;;;;;5.70;5.30;;;;;;;;;;5056076;28;20462;-74
2021/07/04 07:54:38;;;;;;;5.40;5.03;;;;;;;;;;5056150;28;20756;-75
2021/07/04 07:57:05;;;;;;;6.13;5.63;;;;;;;;;;5053760;28;20466;-75
2021/07/04 07:59:31;;;;;;;5.80;5.20;;;;;;;;;;5055619;28;20458;-73
2021/07/04 08:01:58;;;;;;;5.50;5.00;;;;;;;;;;5055597;28;20404;-76
2021/07/04 08:04:24;;;;;;;5.50;5.20;;;;;;;;;;5055675;28;20419;-74
2021/07/04 08:06:50;;;;;;;5.57;5.10;;;;;;;;;;5055051;28;20420;-75
2021/07/04 08:09:16;;;;;;;5.37;4.97;;;;;;;;;;5055472;28;20538;-74
2021/07/04 08:11:42;;;;;;;5.77;5.37;;;;;;;;;;5055620;28;20412;-76
2021/07/04 08:14:08;;;;;;;5.90;5.40;;;;;;;;;;5055589;28;20453;-75
2021/07/04 08:16:34;;;;;;;5.37;4.97;;;;;;;;;;5055125;28;20420;-74
2021/07/04 08:19:00;;;;;;;5.70;5.30;;;;;;;;;;5054447;28;20439;-76
2021/07/04 08:21:28;;;;;;;6.63;5.50;;;;;;;;;;5055462;28;20464;-74
2021/07/04 08:23:54;;;;;;;5.93;5.33;;;;;;;;;;5055327;28;20407;-73
2021/07/04 08:26:21;;;;;;;5.10;4.70;;;;;;;;;;5055138;28;20443;-74
2021/07/04 08:28:47;;;;;;;5.50;5.10;;;;;;;;;;5054763;28;20418;-73
2021/07/04 08:31:13;;;;;;;5.90;5.40;;;;;;;;;;5055104;28;20412;-76
2021/07/04 08:33:39;;;;;;;5.80;5.00;;;;;;;;;;5055224;28;20422;-76
2021/07/04 08:36:05;;;;;;;5.57;5.07;;;;;;;;;;5054976;28;20420;-75
2021/07/04 08:38:31;;;;;;;6.53;6.07;;;;;;;;;;5054638;28;20467;-74
2021/07/04 08:40:57;;;;;;;5.73;5.33;;;;;;;;;;5054780;28;20435;-73
2021/07/04 08:43:30;;;;;;;6.90;6.20;;;;;;;;;;5054999;28;20412;-74
2021/07/04 08:45:56;;;;;;;5.87;5.47;;;;;;;;;;5054667;28;20506;-72
2021/07/04 08:48:23;;;;;;;5.80;5.40;;;;;;;;;;5054635;28;20415;-73
2021/07/04 08:50:49;;;;;;;6.50;6.00;;;;;;;;;;5054599;28;20843;-75
2021/07/04 08:53:15;;;;;;;10.90;9.90;;;;;;;;;;5053656;28;20430;-76
2021/07/04 08:55:44;;;;;;;6.90;6.40;;;;;;;;;;5054647;28;20419;-73
2021/07/04 08:58:11;;;;;;;6.80;6.10;;;;;;;;;;5054208;28;20466;-76
2021/07/04 09:00:37;;;;;;;6.63;6.13;;;;;;;;;;5054300;28;20928;-76
2021/07/04 09:03:23;;;;;;;6.43;5.93;;;;;;;;;;5054784;28;20792;-75
2021/07/04 09:05:49;;;;;;;7.13;6.63;;;;;;;;;;5053318;28;20420;-73
2021/07/04 09:08:21;;;;;;;6.03;5.63;;;;;;;;;;5054032;28;20458;-74
2021/07/04 09:11:06;;;;;;;7.17;6.60;;;;;;;;;;5054496;28;20427;-74
2021/07/04 09:13:32;;;;;;;7.63;6.93;;;;;;;;;;5054178;28;20407;-75
2021/07/04 09:16:09;;;;;;;7.00;6.40;;;;;;;;;;5054422;28;20935;-76
2021/07/04 09:18:36;;;;;;;6.93;6.43;;;;;;;;;;5041516;28;20471;-73
2021/07/04 09:21:02;;;;;;;9.17;7.50;;;;;;;;;;5054247;28;20796;-75
2021/07/04 09:23:35;;;;;;;8.47;7.73;;;;;;;;;;5054218;28;20487;-75
2021/07/04 09:26:01;;;;;;;8.10;7.40;;;;;;;;;;5054131;28;20780;-75
2021/07/04 09:28:27;;;;;;;6.47;6.07;;;;;;;;;;5053816;28;20757;-74
2021/07/04 09:30:53;;;;;;;7.80;7.10;;;;;;;;;;5053456;28;20522;-75
2021/07/04 09:33:21;;;;;;;7.00;6.50;;;;;;;;;;5053943;28;20919;-73
2021/07/04 09:35:56;;;;;;;7.57;7.03;;;;;;;;;;5053631;28;20485;-74
2021/07/04 09:38:22;;;;;;;6.67;6.17;;;;;;;;;;5053651;28;20462;-76
2021/07/04 09:40:50;;;;;;;7.20;6.60;;;;;;;;;;5053685;28;20942;-77
2021/07/04 09:43:17;;;;;;;6.33;5.83;;;;;;;;;;5053948;28;20415;-74
2021/07/04 09:45:46;;;;;;;7.30;6.80;;;;;;;;;;5053511;28;20415;-72
2021/07/04 09:48:12;;;;;;;7.57;6.97;;;;;;;;;;5053481;28;20419;-76
2021/07/04 09:50:42;;;;;;;8.77;8.10;;;;;;;;;;5053228;28;20443;-76
2021/07/04 09:53:08;;;;;;;8.03;7.53;;;;;;;;;;5053821;28;20408;-73
2021/07/04 09:55:34;;;;;;;8.77;8.13;;;;;;;;;;5053334;28;20430;-75
2021/07/04 09:58:04;;;;;;;12.13;11.30;;;;;;;;;;5052878;28;20470;-75
2021/07/04 10:00:32;;;;;;;8.67;8.07;;;;;;;;;;5053855;28;20494;-74
2021/07/04 10:03:09;;;;;;;7.77;6.97;;;;;;;;;;5053696;28;20408;-72
2021/07/04 10:05:36;;;;;;;7.50;7.00;;;;;;;;;;5053503;28;20407;-74
2021/07/04 10:08:17;;;;;;;6.50;6.00;;;;;;;;;;5052911;28;20768;-71
2021/07/04 10:10:43;;;;;;;8.47;7.67;;;;;;;;;;5052217;28;20986;-75
2021/07/04 10:13:09;;;;;;;11.67;10.77;;;;;;;;;;5053418;28;20415;-71
2021/07/04 10:15:35;;;;;;;7.80;7.20;;;;;;;;;;5053218;28;20431;-74
2021/07/04 10:18:02;;;;;;;7.07;6.47;;;;;;;;;;5052487;28;20980;-74
2021/07/04 10:20:29;;;;;;;8.20;7.60;;;;;;;;;;5053121;28;20427;-72
2021/07/04 10:22:55;;;;;;;7.83;7.33;;;;;;;;;;5053291;28;20464;-76
2021/07/04 10:25:21;;;;;;;9.03;8.40;;;;;;;;;;5053196;28;20435;-76
2021/07/04 10:27:49;;;;;;;7.97;7.37;;;;;;;;;;5052491;28;20493;-73
2021/07/04 10:30:15;;;;;;;7.73;7.17;;;;;;;;;;5052803;28;20956;-76
2021/07/04 10:33:00;;;;;;;7.43;6.87;;;;;;;;;;5052927;28;20411;-73
2021/07/04 10:35:26;;;;;;;7.40;6.80;;;;;;;;;;5053201;28;20411;-77
2021/07/04 10:37:52;;;;;;;7.47;6.90;;;;;;;;;;5052629;28;20495;-76
2021/07/04 10:40:19;;;;;;;7.47;6.70;;;;;;;;;;5052843;28;20428;-71
2021/07/04 10:42:46;;;;;;;7.70;7.20;;;;;;;;;;5051342;28;20415;-77
2021/07/04 10:45:31;;;;;;;7.67;7.07;;;;;;;;;;5052759;28;20797;-75
2021/07/04 10:47:59;;;;;;;7.83;7.20;;;;;;;;;;5051345;28;20416;-74
2021/07/04 10:50:25;;;;;;;7.93;7.30;;;;;;;;;;5052389;28;20435;-75
2021/07/04 10:52:53;;;;;;;8.60;7.77;;;;;;;;;;5052749;28;20819;-75
2021/07/04 10:55:30;;;;;;;7.63;7.13;;;;;;;;;;5052731;28;20462;-76
2021/07/04 10:57:57;;;;;;;7.70;7.20;;;;;;;;;;5052242;28;20971;-75
2021/07/04 11:00:24;;;;;;;7.50;6.80;;;;;;;;;;5052763;28;20431;-75
2021/07/04 11:03:00;;;;;;;6.87;6.37;;;;;;;;;;5053047;28;20439;-75
2021/07/04 11:05:41;;;;;;;7.47;6.97;;;;;;;;;;5052885;28;20746;-73
2021/07/04 11:08:09;;;;;;;7.87;7.27;;;;;;;;;;5052345;28;20419;-73
2021/07/04 11:10:50;;;;;;;7.10;6.60;;;;;;;;;;5052786;28;20435;-73
2021/07/04 11:13:16;;;;;;;7.20;6.70;;;;;;;;;;5052614;28;20987;-74
2021/07/04 11:15:48;;;;;;;8.43;7.30;;;;;;;;;;5052812;28;20427;-73
2021/07/04 11:18:15;;;;;;;6.83;6.33;;;;;;;;;;5051954;28;20870;-76
2021/07/04 11:20:42;;;;;;;7.97;7.30;;;;;;;;;;5052429;28;20436;-75
2021/07/04 11:23:10;;;;;;;7.40;6.90;;;;;;;;;;5052817;28;20879;-73
2021/07/04 11:25:45;;;;;;;8.30;7.70;;;;;;;;;;5052606;28;20422;-74
2021/07/04 11:28:17;;;;;;;7.83;7.23;;;;;;;;;;5051359;28;20411;-73
2021/07/04 11:30:43;;;;;;;7.47;6.87;;;;;;;;;;5052153;28;20435;-72
2021/07/04 11:33:31;;;;;;;6.50;6.00;;;;;;;;;;5052533;28;20414;-73
2021/07/04 11:35:59;;;;;;;7.43;6.90;;;;;;;;;;5052567;28;20404;-72
2021/07/04 11:38:27;;;;;;;7.50;6.87;;;;;;;;;;5051863;28;20517;-73
2021/07/04 11:40:53;;;;;;;7.80;7.20;;;;;;;;;;5051907;28;20431;-73
2021/07/04 11:43:20;;;;;;;7.60;7.00;;;;;;;;;;5051172;28;20419;-73
2021/07/04 11:45:47;;;;;;;7.20;6.70;;;;;;;;;;5051228;28;20596;-72
2021/07/04 11:48:13;;;;;;;6.90;6.50;;;;;;;;;;5052535;28;20450;-72
2021/07/04 11:50:49;;;;;;;7.73;7.10;;;;;;;;;;5052374;28;20454;-75
2021/07/04 11:53:15;;;;;;;8.00;7.40;;;;;;;;;;5053843;28;20896;-74
2021/07/04 11:56:00;;;;;;;7.50;7.00;;;;;;;;;;5055726;28;20476;-75
2021/07/04 11:58:30;;;;;;;7.30;6.90;;;;;;;;;;5055130;28;20466;-74
2021/07/04 12:00:56;;;;;;;6.70;6.20;;;;;;;;;;5055713;28;20950;-74
2021/07/04 12:03:23;;;;;;;7.13;6.63;;;;;;;;;;5055674;28;20415;-74
2021/07/04 12:05:49;;;;;;;7.63;7.07;;;;;;;;;;5056005;28;20764;-73
2021/07/04 12:08:16;;;;;;;7.40;6.90;;;;;;;;;;5055031;28;20484;-75
2021/07/04 12:10:51;;;;;;;7.03;6.60;;;;;;;;;;5055763;28;20761;-73
2021/07/04 12:13:18;;;;;;;6.93;6.43;;;;;;;;;;5055700;28;20435;-73
2021/07/04 12:15:49;;;;;;;6.70;6.30;;;;;;;;;;5055472;28;20439;-73
2021/07/04 12:18:16;;;;;;;7.13;6.63;;;;;;;;;;5054732;28;20509;-72
2021/07/04 12:20:42;;;;;;;7.40;6.90;;;;;;;;;;5055545;28;20519;-75
2021/07/04 12:23:12;;;;;;;7.20;6.70;;;;;;;;;;5055098;28;20422;-74
2021/07/04 12:25:42;;;;;;;7.43;6.93;;;;;;;;;;5055271;28;20407;-73
2021/07/04 12:28:13;;;;;;;6.60;6.20;;;;;;;;;;5054665;28;20411;-73
2021/07/04 12:30:40;;;;;;;7.07;6.60;;;;;;;;;;5054907;28;20436;-75
2021/07/04 12:33:06;;;;;;;7.63;7.13;;;;;;;;;;5054783;28;20421;-74
2021/07/04 12:35:35;;;;;;;8.30;7.60;;;;;;;;;;5054866;28;20764;-75
2021/07/04 12:38:03;;;;;;;7.53;7.03;;;;;;;;;;5054625;28;20463;-73
2021/07/04 12:40:34;;;;;;;7.43;6.90;;;;;;;;;;5054814;28;20431;-74
2021/07/04 12:43:08;;;;;;;7.50;7.00;;;;;;;;;;5053457;28;20416;-74
2021/07/04 12:45:34;;;;;;;8.27;7.67;;;;;;;;;;5054902;28;20419;-74
2021/07/04 12:48:01;;;;;;;7.47;6.87;;;;;;;;;;5054809;28;20420;-74
2021/07/04 12:50:37;;;;;;;8.40;7.80;;;;;;;;;;5053590;28;20439;-72
2021/07/04 12:53:03;;;;;;;9.07;8.27;;;;;;;;;;5055165;28;20439;-73
2021/07/04 12:55:36;;;;;;;8.37;7.77;;;;;;;;;;5054920;28;20419;-76
2021/07/04 12:58:21;;;;;;;8.47;7.77;;;;;;;;;;5052874;28;20469;-75
2021/07/04 13:00:47;;;;;;;8.10;7.50;;;;;;;;;;5054467;28;20831;-73
2021/07/04 13:03:13;;;;;;;8.77;7.87;;;;;;;;;;5054420;28;20412;-75
2021/07/04 13:05:39;;;;;;;9.17;8.47;;;;;;;;;;5054082;28;20416;-72
2021/07/04 13:08:12;;;;;;;8.50;7.90;;;;;;;;;;5052328;28;20431;-73
2021/07/04 13:10:39;;;;;;;9.27;8.57;;;;;;;;;;5054283;28;20460;-75
2021/07/04 13:13:09;;;;;;;9.37;8.70;;;;;;;;;;5054051;28;20423;-74
2021/07/04 13:15:35;;;;;;;9.60;8.80;;;;;;;;;;5054277;28;20423;-73
2021/07/04 13:18:02;;;;;;;11.53;10.63;;;;;;;;;;5053436;28;20482;-72
2021/07/04 13:20:28;;;;;;;10.43;9.63;;;;;;;;;;5054289;28;20431;-76
2021/07/04 13:22:55;;;;;;;9.83;8.97;;;;;;;;;;5053856;28;20450;-76
2021/07/04 13:25:26;;;;;;;8.90;8.30;;;;;;;;;;5054166;28;20424;-74
2021/07/04 13:28:03;;;;;;;9.10;8.40;;;;;;;;;;5053397;28;20419;-76
2021/07/04 13:30:31;;;;;;;8.27;7.67;;;;;;;;;;5054009;28;20471;-76
2021/07/04 13:33:02;;;;;;;8.90;8.23;;;;;;;;;;5053964;28;20502;-74
2021/07/04 13:35:29;;;;;;;9.00;8.30;;;;;;;;;;5053860;28;20815;-75
2021/07/04 13:38:00;;;;;;;9.67;8.87;;;;;;;;;;5053142;28;20455;-72
2021/07/04 13:40:26;;;;;;;8.40;7.60;;;;;;;;;;5054088;28;20435;-77
2021/07/04 13:42:54;;;;;;;8.50;7.90;;;;;;;;;;5053928;28;20400;-74
2021/07/04 13:45:24;;;;;;;9.60;8.90;;;;;;;;;;5053651;28;20410;-74
2021/07/04 13:47:51;;;;;;;9.60;8.80;;;;;;;;;;5053121;28;20400;-76
2021/07/04 13:50:17;;;;;;;9.23;8.57;;;;;;;;;;5053568;28;20832;-74
2021/07/04 13:52:43;;;;;;;9.10;8.27;;;;;;;;;;5053628;28;20426;-75
2021/07/04 13:55:09;;;;;;;9.00;8.30;;;;;;;;;;5053405;28;20415;-73
2021/07/04 13:57:35;;;;;;;9.17;8.43;;;;;;;;;;5052666;28;20517;-75
2021/07/04 14:00:01;;;;;;;8.53;7.93;;;;;;;;;;5053424;28;20819;-73
2021/07/04 14:02:27;;;;;;;9.03;8.40;;;;;;;;;;5052683;28;20741;-73
2021/07/04 14:04:53;;;;;;;8.87;8.27;;;;;;;;;;5052207;28;20741;-74
2021/07/04 14:07:19;;;;;;;11.50;10.50;;;;;;;;;;5052917;28;20909;-73
2021/07/04 14:09:46;;;;;;;8.17;7.57;;;;;;;;;;5048516;28;20442;-73
2021/07/04 14:12:12;;;;;;;9.30;8.60;;;;;;;;;;5053007;28;20784;-75
2021/07/04 14:14:38;;;;;;;8.90;8.20;;;;;;;;;;5053224;28;20416;-78
2021/07/04 14:17:04;;;;;;;9.80;9.10;;;;;;;;;;5051647;28;20478;-76
2021/07/04 14:19:33;;;;;;;8.30;7.70;;;;;;;;;;5040889;28;20574;-76
2021/07/04 14:22:00;;;;;;;9.83;9.03;;;;;;;;;;5043374;28;20496;-76
2021/07/04 14:24:27;;;;;;;9.00;8.40;;;;;;;;;;5048682;28;20404;-74
2021/07/04 14:26:53;;;;;;;9.93;9.23;;;;;;;;;;5047444;28;20423;-76
2021/07/04 14:29:19;;;;;;;8.77;8.17;;;;;;;;;;5048870;28;20432;-77
2021/07/04 14:31:45;;;;;;;9.33;8.63;;;;;;;;;;5049043;28;20412;-74
2021/07/04 14:34:11;;;;;;;8.67;7.97;;;;;;;;;;5049328;28;20412;-74